createdAt,value
2017-06-17T00:01:56.150Z,16.13
2017-06-17T00:04:23.134Z,11.20
2017-06-17T00:06:50.141Z,14.30
2017-06-17T00:09:17.167Z,13.07
2017-06-17T00:11:44.160Z,16.77
2017-06-17T00:14:11.166Z,14.10
2017-06-17T00:16:38.147Z,8.30
2017-06-17T00:19:05.174Z,19.60
2017-06-17T00:21:32.172Z,21.87
2017-06-17T00:23:59.184Z,18.73
2017-06-17T00:26:26.199Z,10.40
2017-06-17T00:28:53.179Z,25.07
2017-06-17T00:31:20.223Z,10.50
2017-06-17T00:33:47.214Z,13.63
2017-06-17T00:36:15.378Z,16.23
2017-06-17T00:38:42.359Z,9.97
2017-06-17T00:41:09.816Z,17.00
2017-06-17T00:43:36.838Z,20.37
2017-06-17T00:46:04.580Z,16.20
2017-06-17T00:48:31.607Z,13.17
2017-06-17T00:50:58.597Z,16.50
2017-06-17T00:53:26.362Z,13.57
2017-06-17T00:55:54.134Z,9.43
2017-06-17T00:58:21.895Z,13.87
2017-06-17T01:00:50.111Z,11.27
2017-06-17T01:03:17.091Z,20.63
2017-06-17T01:05:44.106Z,14.00
2017-06-17T01:08:11.098Z,12.40
2017-06-17T01:10:38.912Z,28.10
2017-06-17T01:13:05.910Z,11.10
2017-06-17T01:15:33.795Z,13.10
2017-06-17T01:18:00.779Z,10.20
2017-06-17T01:20:27.766Z,18.17
2017-06-17T01:22:55.800Z,22.20
2017-06-17T01:25:22.771Z,22.53
2017-06-17T01:27:50.880Z,13.00
2017-06-17T01:30:17.859Z,18.90
2017-06-17T01:32:45.019Z,19.00
2017-06-17T01:35:12.037Z,26.07
2017-06-17T01:37:39.018Z,14.07
2017-06-17T01:40:06.139Z,18.47
2017-06-17T01:42:33.135Z,9.37
2017-06-17T01:45:00.918Z,16.47
2017-06-17T01:47:27.895Z,14.83
2017-06-17T01:49:55.287Z,16.93
2017-06-17T01:52:22.268Z,13.20
2017-06-17T01:54:49.252Z,13.07
2017-06-17T01:57:16.293Z,14.40
2017-06-17T01:59:43.275Z,14.77
2017-06-17T02:02:11.057Z,11.67
2017-06-17T02:04:38.798Z,15.13
2017-06-17T02:07:05.812Z,10.40
2017-06-17T02:09:32.786Z,10.80
2017-06-17T02:11:59.802Z,8.37
2017-06-17T02:14:26.787Z,12.57
2017-06-17T02:16:54.548Z,18.13
2017-06-17T02:19:21.559Z,15.77
2017-06-17T02:21:48.643Z,10.90
2017-06-17T02:24:15.670Z,14.10
2017-06-17T02:26:42.674Z,9.60
2017-06-17T02:29:09.647Z,12.30
2017-06-17T02:31:36.667Z,15.20
2017-06-17T02:34:03.646Z,11.80
2017-06-17T02:36:30.627Z,14.87
2017-06-17T02:38:58.419Z,11.77
2017-06-17T02:41:25.410Z,8.90
2017-06-17T02:43:52.415Z,6.73
2017-06-17T02:46:19.410Z,12.20
2017-06-17T02:48:46.425Z,12.80
2017-06-17T02:51:13.410Z,11.20
2017-06-17T02:53:40.425Z,10.00
2017-06-17T02:56:07.414Z,11.53
2017-06-17T02:58:35.195Z,10.53
2017-06-17T03:01:02.183Z,23.93
2017-06-17T03:03:29.195Z,13.03
2017-06-17T03:05:56.178Z,17.73
2017-06-17T03:08:23.199Z,16.03
2017-06-17T03:10:50.179Z,11.40
2017-06-17T03:13:17.183Z,8.47
2017-06-17T03:15:44.167Z,12.63
2017-06-17T03:18:11.175Z,17.57
2017-06-17T03:20:38.187Z,11.47
2017-06-17T03:23:05.945Z,9.60
2017-06-17T03:25:32.971Z,14.40
2017-06-17T03:27:59.953Z,12.60
2017-06-17T03:30:27.747Z,16.83
2017-06-17T03:32:54.787Z,14.97
2017-06-17T03:35:21.846Z,13.23
2017-06-17T03:37:48.878Z,11.80
2017-06-17T03:40:15.865Z,9.30
2017-06-17T03:42:42.851Z,11.07
2017-06-17T03:45:10.628Z,6.10
2017-06-17T03:47:37.623Z,11.47
2017-06-17T03:50:04.648Z,10.80
2017-06-17T03:52:31.635Z,17.47
2017-06-17T03:54:58.647Z,18.00
2017-06-17T03:57:25.632Z,8.83
2017-06-17T03:59:53.431Z,12.30
2017-06-17T04:02:20.419Z,15.90
2017-06-17T04:04:47.442Z,12.63
2017-06-17T04:07:14.451Z,8.30
2017-06-17T04:09:42.227Z,13.70
2017-06-17T04:12:09.233Z,14.83
2017-06-17T04:14:36.251Z,14.20
2017-06-17T04:17:03.235Z,10.60
2017-06-17T04:19:31.032Z,11.20
2017-06-17T04:21:58.106Z,11.53
2017-06-17T04:24:25.148Z,12.80
2017-06-17T04:26:52.134Z,12.63
2017-06-17T04:29:19.115Z,15.53
2017-06-17T04:31:46.123Z,12.63
2017-06-17T04:34:13.103Z,10.40
2017-06-17T04:36:40.108Z,6.90
2017-06-17T04:39:07.087Z,8.80
2017-06-17T04:41:34.107Z,10.70
2017-06-17T04:44:01.100Z,10.77
2017-06-17T04:46:28.143Z,6.73
2017-06-17T04:48:55.146Z,21.50
2017-06-17T04:51:22.127Z,11.37
2017-06-17T04:53:49.139Z,12.93
2017-06-17T04:56:16.128Z,7.60
2017-06-17T04:58:43.163Z,16.90
2017-06-17T05:01:10.183Z,13.43
2017-06-17T05:03:37.963Z,8.10
2017-06-17T05:06:05.711Z,10.77
2017-06-17T05:08:33.491Z,10.93
2017-06-17T05:11:01.252Z,17.20
2017-06-17T05:13:29.062Z,10.63
2017-06-17T05:15:56.050Z,11.23
2017-06-17T05:18:23.032Z,7.97
2017-06-17T05:20:50.060Z,11.83
2017-06-17T05:23:17.813Z,18.93
2017-06-17T05:25:45.608Z,9.40
2017-06-17T05:28:12.595Z,7.00
2017-06-17T05:30:39.607Z,6.50
2017-06-17T05:33:06.597Z,10.00
2017-06-17T05:35:33.603Z,11.93
2017-06-17T05:38:00.588Z,11.80
2017-06-17T05:40:27.617Z,7.67
2017-06-17T05:42:54.598Z,16.10
2017-06-17T05:45:22.375Z,14.17
2017-06-17T05:47:50.127Z,14.03
2017-06-17T05:50:17.904Z,7.33
2017-06-17T05:52:44.908Z,9.20
2017-06-17T05:55:11.933Z,17.93
2017-06-17T05:57:38.914Z,7.47
2017-06-17T06:00:05.895Z,15.53
2017-06-17T06:02:32.922Z,9.83
2017-06-17T06:05:00.688Z,12.87
2017-06-17T06:07:28.478Z,16.23
2017-06-17T06:09:55.901Z,10.07
2017-06-17T06:12:23.647Z,9.37
2017-06-17T06:14:50.631Z,12.30
2017-06-17T06:17:17.712Z,8.33
2017-06-17T06:19:44.699Z,9.27
2017-06-17T06:22:11.833Z,9.40
2017-06-17T06:24:38.823Z,11.53
2017-06-17T06:27:05.831Z,7.20
2017-06-17T06:29:32.815Z,14.00
2017-06-17T06:31:59.843Z,8.87
2017-06-17T06:34:27.599Z,11.53
2017-06-17T06:36:54.577Z,13.43
2017-06-17T06:39:21.587Z,18.53
2017-06-17T06:41:48.567Z,9.70
2017-06-17T06:44:15.603Z,12.50
2017-06-17T06:46:42.580Z,11.07
2017-06-17T06:49:09.591Z,10.33
2017-06-17T06:51:36.573Z,11.57
2017-06-17T06:54:03.600Z,9.37
2017-06-17T06:56:30.585Z,4.43
2017-06-17T06:58:57.595Z,8.50
2017-06-17T07:01:24.625Z,9.67
2017-06-17T07:03:51.607Z,10.57
2017-06-17T07:06:18.592Z,8.53
2017-06-17T07:08:45.944Z,14.03
2017-06-17T07:11:12.952Z,5.67
2017-06-17T07:13:39.935Z,9.70
2017-06-17T07:16:06.971Z,9.40
2017-06-17T07:18:33.985Z,6.93
2017-06-17T07:21:01.002Z,5.30
2017-06-17T07:23:27.983Z,8.67
2017-06-17T07:25:55.024Z,9.13
2017-06-17T07:28:22.004Z,7.80
2017-06-17T07:30:49.044Z,9.60
2017-06-17T07:33:16.023Z,13.43
2017-06-17T07:35:43.776Z,12.30
2017-06-17T07:38:11.550Z,8.23
2017-06-17T07:40:39.298Z,14.83
2017-06-17T07:43:06.330Z,10.43
2017-06-17T07:45:33.319Z,11.60
2017-06-17T07:48:00.644Z,12.00
2017-06-17T07:50:27.635Z,11.40
2017-06-17T07:52:54.640Z,7.13
2017-06-17T07:55:21.655Z,12.60
2017-06-17T07:57:48.636Z,8.60
2017-06-17T08:00:16.428Z,10.27
2017-06-17T08:02:43.420Z,8.13
2017-06-17T08:05:10.414Z,8.30
2017-06-17T08:07:37.424Z,11.03
2017-06-17T08:10:04.416Z,5.70
2017-06-17T08:12:31.479Z,8.73
2017-06-17T08:14:58.484Z,7.87
2017-06-17T08:17:26.247Z,13.60
2017-06-17T08:19:54.019Z,9.13
2017-06-17T08:22:20.996Z,10.67
2017-06-17T08:24:48.007Z,12.67
2017-06-17T08:27:15.755Z,8.83
2017-06-17T08:29:43.534Z,4.23
2017-06-17T08:32:11.282Z,6.07
2017-06-17T08:34:39.056Z,6.03
2017-06-17T08:37:06.052Z,3.80
2017-06-17T08:39:33.159Z,4.70
2017-06-17T08:42:00.151Z,5.03
2017-06-17T08:44:27.167Z,9.73
2017-06-17T08:46:54.155Z,10.90
2017-06-17T08:49:21.159Z,4.77
2017-06-17T08:51:48.165Z,5.63
2017-06-17T08:54:15.191Z,6.50
2017-06-17T08:56:42.200Z,6.73
2017-06-17T08:59:09.225Z,4.13
2017-06-17T09:01:36.236Z,2.57
2017-06-17T09:04:03.215Z,3.23
2017-06-17T09:06:30.251Z,7.70
2017-06-17T09:08:57.238Z,7.40
2017-06-17T09:11:24.260Z,9.60
2017-06-17T09:13:52.003Z,4.77
2017-06-17T09:16:19.019Z,2.40
2017-06-17T09:18:45.997Z,4.77
2017-06-17T09:21:13.056Z,5.73
2017-06-17T09:23:40.040Z,6.03
2017-06-17T09:26:07.059Z,7.27
2017-06-17T09:28:34.039Z,3.37
2017-06-17T09:31:01.047Z,4.77
2017-06-17T09:33:28.042Z,4.97
2017-06-17T09:35:55.027Z,5.33
2017-06-17T09:38:22.038Z,10.77
2017-06-17T09:40:49.027Z,4.77
2017-06-17T09:43:16.042Z,7.67
2017-06-17T09:45:43.027Z,11.50
2017-06-17T09:48:10.043Z,4.40
2017-06-17T09:50:37.795Z,5.87
2017-06-17T09:53:04.809Z,5.03
2017-06-17T09:55:31.790Z,7.07
2017-06-17T09:57:58.800Z,3.30
2017-06-17T10:00:25.856Z,1.97
2017-06-17T10:02:52.868Z,3.90
2017-06-17T10:05:19.867Z,5.37
2017-06-17T10:07:46.890Z,9.10
2017-06-17T10:10:13.863Z,4.80
2017-06-17T10:12:40.887Z,6.40
2017-06-17T10:15:07.867Z,8.33
2017-06-17T10:17:34.845Z,3.30
2017-06-17T10:20:01.864Z,4.83
2017-06-17T10:22:29.607Z,6.10
2017-06-17T10:24:56.630Z,7.73
2017-06-17T10:27:23.611Z,3.47
2017-06-17T10:29:50.644Z,3.97
2017-06-17T10:32:17.619Z,7.60
2017-06-17T10:34:44.613Z,4.50
2017-06-17T10:37:11.623Z,4.20
2017-06-17T10:39:38.609Z,5.77
2017-06-17T10:42:05.660Z,9.30
2017-06-17T10:44:32.699Z,2.43
2017-06-17T10:46:59.719Z,2.73
2017-06-17T10:49:26.761Z,6.97
2017-06-17T10:51:53.755Z,5.37
2017-06-17T10:54:20.763Z,11.40
2017-06-17T10:56:47.747Z,8.37
2017-06-17T10:59:14.752Z,6.73
2017-06-17T11:01:41.738Z,4.53
2017-06-17T11:04:08.847Z,5.07
2017-06-17T11:06:35.855Z,5.83
2017-06-17T11:09:02.966Z,2.60
2017-06-17T11:11:29.979Z,8.23
2017-06-17T11:13:56.967Z,3.23
2017-06-17T11:16:23.978Z,5.37
2017-06-17T11:18:50.987Z,5.77
2017-06-17T11:21:17.975Z,2.80
2017-06-17T11:23:44.980Z,6.77
2017-06-17T11:26:11.980Z,5.37
2017-06-17T11:28:38.991Z,5.20
2017-06-17T11:31:05.987Z,4.10
2017-06-17T11:33:32.995Z,2.87
2017-06-17T11:36:00.072Z,3.67
2017-06-17T11:38:27.095Z,5.37
2017-06-17T11:40:54.255Z,7.33
2017-06-17T11:43:21.315Z,3.80
2017-06-17T11:45:48.305Z,3.57
2017-06-17T11:48:15.307Z,3.90
2017-06-17T11:50:42.435Z,3.00
2017-06-17T11:53:09.459Z,3.10
2017-06-17T11:55:37.374Z,5.73
2017-06-17T11:58:04.355Z,3.83
2017-06-17T12:00:31.394Z,2.17
2017-06-17T12:02:58.513Z,2.43
2017-06-17T12:05:25.553Z,7.60
2017-06-17T12:07:52.584Z,5.30
2017-06-17T12:10:19.595Z,4.20
2017-06-17T12:12:47.367Z,5.57
2017-06-17T12:15:15.120Z,2.73
2017-06-17T12:17:42.919Z,4.60
2017-06-17T12:20:09.916Z,4.30
2017-06-17T12:22:36.929Z,4.03
2017-06-17T12:25:03.915Z,2.53
2017-06-17T12:27:30.949Z,3.23
2017-06-17T12:29:57.939Z,5.50
2017-06-17T12:32:24.944Z,5.77
2017-06-17T12:34:51.956Z,3.47
2017-06-17T12:37:18.934Z,5.93
2017-06-17T12:39:46.060Z,7.40
2017-06-17T12:42:13.047Z,1.30
2017-06-17T12:44:40.899Z,2.10
2017-06-17T12:47:07.883Z,3.83
2017-06-17T12:49:34.864Z,2.77
2017-06-17T12:52:01.892Z,8.10
2017-06-17T12:54:28.874Z,2.60
2017-06-17T12:56:55.929Z,4.40
2017-06-17T12:59:22.907Z,3.00
2017-06-17T13:01:50.091Z,3.13
2017-06-17T13:04:17.079Z,3.43
2017-06-17T13:06:44.087Z,3.17
2017-06-17T13:09:11.067Z,3.60
2017-06-17T13:11:38.088Z,10.07
2017-06-17T13:14:05.068Z,4.60
2017-06-17T13:16:32.042Z,3.80
2017-06-17T13:18:59.631Z,14.03
2017-06-17T13:21:27.536Z,2.57
2017-06-17T13:23:54.548Z,3.30
2017-06-17T13:26:21.589Z,5.50
2017-06-17T13:28:48.677Z,1.40
2017-06-17T13:31:16.097Z,3.90
2017-06-17T13:33:43.083Z,6.57
2017-06-17T13:36:10.095Z,3.03
2017-06-17T13:38:37.091Z,6.23
2017-06-17T13:41:05.188Z,7.10
2017-06-17T13:43:32.188Z,9.33
2017-06-17T13:45:59.180Z,9.80
2017-06-17T13:48:26.223Z,3.70
2017-06-17T13:50:53.256Z,2.67
2017-06-17T13:53:20.259Z,2.27
2017-06-17T13:55:47.258Z,7.30
2017-06-17T13:58:14.535Z,3.17
2017-06-17T14:00:41.520Z,5.50
2017-06-17T14:03:09.312Z,6.47
2017-06-17T14:05:36.310Z,7.57
2017-06-17T14:08:03.295Z,1.90
2017-06-17T14:10:31.079Z,9.10
2017-06-17T14:12:58.059Z,8.77
2017-06-17T14:15:25.079Z,3.07
2017-06-17T14:17:52.056Z,3.97
2017-06-17T14:20:19.063Z,4.07
2017-06-17T14:22:46.130Z,5.10
2017-06-17T14:25:13.151Z,6.70
2017-06-17T14:27:40.139Z,11.63
2017-06-17T14:30:07.128Z,3.13
2017-06-17T14:32:34.899Z,10.13
2017-06-17T14:35:01.887Z,5.27
2017-06-17T14:37:28.891Z,4.87
2017-06-17T14:39:55.883Z,4.70
2017-06-17T14:42:22.914Z,5.20
2017-06-17T14:44:49.903Z,3.30
2017-06-17T14:47:16.887Z,1.73
2017-06-17T14:49:43.895Z,3.10
2017-06-17T14:52:10.879Z,2.40
2017-06-17T14:54:37.902Z,2.17
2017-06-17T14:57:05.680Z,4.67
2017-06-17T14:59:32.659Z,5.90
2017-06-17T15:01:59.675Z,4.20
2017-06-17T15:04:26.663Z,1.83
2017-06-17T15:06:53.667Z,3.03
2017-06-17T15:09:20.878Z,4.63
2017-06-17T15:11:48.015Z,4.60
2017-06-17T15:14:15.252Z,3.20
2017-06-17T15:16:42.433Z,3.60
2017-06-17T15:19:09.852Z,3.30
2017-06-17T15:21:37.699Z,1.97
2017-06-17T15:24:04.688Z,5.43
2017-06-17T15:26:31.691Z,4.10
2017-06-17T15:28:58.671Z,2.93
2017-06-17T15:31:25.696Z,3.10
2017-06-17T15:33:52.678Z,3.67
2017-06-17T15:36:19.872Z,6.50
2017-06-17T15:38:46.857Z,6.43
2017-06-17T15:41:13.859Z,4.13
2017-06-17T15:43:40.869Z,5.00
2017-06-17T15:46:07.848Z,3.20
2017-06-17T15:48:34.903Z,3.50
2017-06-17T15:51:01.951Z,4.30
2017-06-17T15:53:29.013Z,3.40
2017-06-17T15:55:55.995Z,4.90
2017-06-17T15:58:23.005Z,6.57
2017-06-17T16:00:49.995Z,5.30
2017-06-17T16:03:17.179Z,10.43
2017-06-17T16:05:44.163Z,6.40
2017-06-17T16:08:11.171Z,5.07
2017-06-17T16:10:38.246Z,3.23
2017-06-17T16:13:05.304Z,6.33
2017-06-17T16:15:32.292Z,3.90
2017-06-17T16:18:00.094Z,4.43
2017-06-17T16:20:28.136Z,5.10
2017-06-17T16:22:55.143Z,3.33
2017-06-17T16:25:22.137Z,5.97
2017-06-17T16:27:49.151Z,8.20
2017-06-17T16:30:16.133Z,3.70
2017-06-17T16:32:43.147Z,7.00
2017-06-17T16:35:10.899Z,7.27
2017-06-17T16:37:37.924Z,5.57
2017-06-17T16:40:04.958Z,7.20
2017-06-17T16:42:31.964Z,5.50
2017-06-17T16:44:59.757Z,6.63
2017-06-17T16:47:26.738Z,11.10
2017-06-17T16:49:53.728Z,5.93
2017-06-17T16:52:20.744Z,6.00
2017-06-17T16:54:47.732Z,4.37
2017-06-17T16:57:14.735Z,2.63
2017-06-17T16:59:41.732Z,5.20
2017-06-17T17:02:08.819Z,8.60
2017-06-17T17:04:35.813Z,4.67
2017-06-17T17:07:02.795Z,4.87
2017-06-17T17:09:29.800Z,8.23
2017-06-17T17:11:56.778Z,3.03
2017-06-17T17:14:23.797Z,5.87
2017-06-17T17:16:50.799Z,5.17
2017-06-17T17:19:18.171Z,2.40
2017-06-17T17:21:45.931Z,3.90
2017-06-17T17:24:12.929Z,3.40
2017-06-17T17:26:39.966Z,6.30
2017-06-17T17:29:06.957Z,2.57
2017-06-17T17:31:34.714Z,3.20
2017-06-17T17:34:01.732Z,3.10
2017-06-17T17:36:28.711Z,2.87
2017-06-17T17:38:55.719Z,4.50
2017-06-17T17:41:22.710Z,6.03
2017-06-17T17:43:50.504Z,2.97
2017-06-17T17:46:17.498Z,4.27
2017-06-17T17:48:44.512Z,3.53
2017-06-17T17:51:11.492Z,5.50
2017-06-17T17:53:38.503Z,6.20
2017-06-17T17:56:05.495Z,3.97
2017-06-17T17:58:32.506Z,3.73
2017-06-17T18:00:59.487Z,4.43
2017-06-17T18:03:26.502Z,5.80
2017-06-17T18:05:53.510Z,4.80
2017-06-17T18:08:20.520Z,9.10
2017-06-17T18:10:47.515Z,6.80
2017-06-17T18:13:14.589Z,3.03
2017-06-17T18:15:41.579Z,4.37
2017-06-17T18:18:09.347Z,5.20
2017-06-17T18:20:36.335Z,5.87
2017-06-17T18:23:03.359Z,3.80
2017-06-17T18:25:30.350Z,4.80
2017-06-17T18:27:57.345Z,4.50
2017-06-17T18:30:24.403Z,5.20
2017-06-17T18:32:51.755Z,5.03
2017-06-17T18:35:18.780Z,7.70
2017-06-17T18:37:46.532Z,3.70
2017-06-17T18:40:13.544Z,4.60
2017-06-17T18:42:40.532Z,12.87
2017-06-17T18:45:08.865Z,5.30
2017-06-17T18:47:35.855Z,6.03
2017-06-17T18:50:03.605Z,5.90
2017-06-17T18:52:30.648Z,6.07
2017-06-17T18:54:57.648Z,6.10
2017-06-17T18:57:25.548Z,5.60
2017-06-17T18:59:52.524Z,6.10
2017-06-17T19:02:19.504Z,6.00
2017-06-17T19:04:46.504Z,5.10
2017-06-17T19:07:13.718Z,10.53
2017-06-17T19:09:40.737Z,8.50
2017-06-17T19:12:07.764Z,15.97
2017-06-17T19:14:34.749Z,7.00
2017-06-17T19:17:01.755Z,4.83
2017-06-17T19:19:28.739Z,5.97
2017-06-17T19:21:55.856Z,8.90
2017-06-17T19:24:22.847Z,6.50
2017-06-17T19:26:49.871Z,5.17
2017-06-17T19:29:16.851Z,7.37
2017-06-17T19:31:43.885Z,5.70
2017-06-17T19:34:10.874Z,10.33
2017-06-17T19:36:38.631Z,11.50
2017-06-17T19:39:05.647Z,7.60
2017-06-17T19:41:32.671Z,9.40
2017-06-17T19:43:59.652Z,11.20
2017-06-17T19:46:26.671Z,10.30
2017-06-17T19:48:53.696Z,7.33
2017-06-17T19:51:20.707Z,8.47
2017-06-17T19:53:47.733Z,7.70
2017-06-17T19:56:15.052Z,12.30
2017-06-17T19:58:42.031Z,8.50
2017-06-17T20:01:09.063Z,9.10
2017-06-17T20:03:36.067Z,7.43
2017-06-17T20:06:03.864Z,11.33
2017-06-17T20:08:30.892Z,8.57
2017-06-17T20:10:57.873Z,11.10
2017-06-17T20:13:24.879Z,9.40
2017-06-17T20:15:51.895Z,9.50
2017-06-17T20:18:18.915Z,17.23
2017-06-17T20:20:45.922Z,10.37
2017-06-17T20:23:12.935Z,9.83
2017-06-17T20:25:39.920Z,10.53
2017-06-17T20:28:06.947Z,8.40
2017-06-17T20:30:33.931Z,13.13
2017-06-17T20:33:00.976Z,14.70
2017-06-17T20:35:27.960Z,10.03
2017-06-17T20:37:54.947Z,15.43
2017-06-17T20:40:21.964Z,12.40
2017-06-17T20:42:49.711Z,9.43
2017-06-17T20:45:16.720Z,9.70
2017-06-17T20:47:43.711Z,14.50
2017-06-17T20:50:10.721Z,13.53
2017-06-17T20:52:37.699Z,11.03
2017-06-17T20:55:04.731Z,11.67
2017-06-17T20:57:31.728Z,22.30
2017-06-17T20:59:58.751Z,14.13
2017-06-17T21:02:26.503Z,17.90
2017-06-17T21:04:53.547Z,19.13
2017-06-17T21:07:20.527Z,14.00
2017-06-17T21:09:47.512Z,14.80
2017-06-17T21:12:14.524Z,22.73
2017-06-17T21:14:41.505Z,14.80
2017-06-17T21:17:08.532Z,14.50
2017-06-17T21:19:35.563Z,13.53
2017-06-17T21:22:02.588Z,14.03
2017-06-17T21:24:30.335Z,20.10
2017-06-17T21:26:57.315Z,12.17
2017-06-17T21:29:24.319Z,15.50
2017-06-17T21:31:51.309Z,21.80
2017-06-17T21:34:18.339Z,16.00
2017-06-17T21:36:46.097Z,18.43
2017-06-17T21:39:13.859Z,14.50
2017-06-17T21:41:41.663Z,16.43
2017-06-17T21:44:08.689Z,18.13
2017-06-17T21:46:35.697Z,14.07
2017-06-17T21:49:02.736Z,15.97
2017-06-17T21:51:29.801Z,16.10
2017-06-17T21:53:56.783Z,15.63
2017-06-17T21:56:23.763Z,16.33
2017-06-17T21:58:50.780Z,19.67
2017-06-17T22:01:17.845Z,16.83
2017-06-17T22:03:44.868Z,17.53
2017-06-17T22:06:11.859Z,15.70
2017-06-17T22:08:38.882Z,15.03
2017-06-17T22:11:05.877Z,16.23
2017-06-17T22:13:33.651Z,14.10
2017-06-17T22:16:00.665Z,16.37
2017-06-17T22:18:27.686Z,11.77
2017-06-17T22:20:54.684Z,19.07
2017-06-17T22:23:22.462Z,16.43
2017-06-17T22:25:49.467Z,13.37
2017-06-17T22:28:16.491Z,18.50
2017-06-17T22:30:43.493Z,18.60
2017-06-17T22:33:10.483Z,16.07
2017-06-17T22:35:37.504Z,13.03
2017-06-17T22:38:04.504Z,18.23
2017-06-17T22:40:31.518Z,17.73
2017-06-17T22:42:58.515Z,15.10
2017-06-17T22:45:26.672Z,16.43
2017-06-17T22:47:53.660Z,18.40
2017-06-17T22:50:20.669Z,17.50
2017-06-17T22:52:48.438Z,20.50
2017-06-17T22:55:16.219Z,15.30
2017-06-17T22:57:43.408Z,23.63
2017-06-17T23:00:10.420Z,15.77
2017-06-17T23:02:37.408Z,15.10
2017-06-17T23:05:04.430Z,19.30
2017-06-17T23:07:31.411Z,21.27
2017-06-17T23:09:58.420Z,16.07
2017-06-17T23:12:25.410Z,20.50
2017-06-17T23:14:52.421Z,21.50
2017-06-17T23:17:19.410Z,13.63
2017-06-17T23:19:46.940Z,20.60
2017-06-17T23:22:13.942Z,17.97
2017-06-17T23:24:41.016Z,17.70
2017-06-17T23:27:08.047Z,17.03
2017-06-17T23:29:35.036Z,17.80
2017-06-17T23:32:02.051Z,20.20
2017-06-17T23:34:29.049Z,26.43
2017-06-17T23:36:56.067Z,20.17
2017-06-17T23:39:23.077Z,16.80
2017-06-17T23:41:50.103Z,18.30
2017-06-17T23:44:17.867Z,18.23
2017-06-17T23:46:45.652Z,14.93
2017-06-17T23:49:12.637Z,18.70
2017-06-17T23:51:39.651Z,22.70
2017-06-17T23:54:06.686Z,20.77
2017-06-17T23:56:33.704Z,22.17
2017-06-17T23:59:00.688Z,18.70
